sensor_id;sensor_type;location;lat;lon;timestamp;P1;durP1;ratioP1;P2;durP2;ratioP2
4939;SDS011;2485;49.326;7.214;2023-02-28T00:01:45;0.87;;;0.77;;
4939;SDS011;2485;49.326;7.214;2023-02-28T00:04:13;1.47;;;1.10;;
4939;SDS011;2485;49.326;7.214;2023-02-28T00:06:39;2.20;;;1.50;;
4939;SDS011;2485;49.326;7.214;2023-02-28T00:09:07;1.23;;;0.87;;
4939;SDS011;2485;49.326;7.214;2023-02-28T00:11:33;1.53;;;1.17;;
4939;SDS011;2485;49.326;7.214;2023-02-28T00:13:59;1.53;;;1.00;;
4939;SDS011;2485;49.326;7.214;2023-02-28T00:16:26;2.17;;;1.00;;
4939;SDS011;2485;49.326;7.214;2023-02-28T00:18:52;2.07;;;1.40;;
4939;SDS011;2485;49.326;7.214;2023-02-28T00:21:20;2.97;;;1.33;;
4939;SDS011;2485;49.326;7.214;2023-02-28T00:23:46;2.80;;;1.60;;
4939;SDS011;2485;49.326;7.214;2023-02-28T00:26:13;1.30;;;1.17;;
4939;SDS011;2485;49.326;7.214;2023-02-28T00:28:39;1.53;;;1.20;;
4939;SDS011;2485;49.326;7.214;2023-02-28T00:31:05;1.67;;;1.23;;
4939;SDS011;2485;49.326;7.214;2023-02-28T00:33:36;2.00;;;1.17;;
4939;SDS011;2485;49.326;7.214;2023-02-28T00:36:04;1.30;;;1.10;;
4939;SDS011;2485;49.326;7.214;2023-02-28T00:38:32;3.10;;;1.43;;
4939;SDS011;2485;49.326;7.214;2023-02-28T00:40:59;3.33;;;1.67;;
4939;SDS011;2485;49.326;7.214;2023-02-28T00:43:29;1.37;;;1.07;;
4939;SDS011;2485;49.326;7.214;2023-02-28T00:45:56;1.97;;;1.80;;
4939;SDS011;2485;49.326;7.214;2023-02-28T00:48:22;1.13;;;0.90;;
4939;SDS011;2485;49.326;7.214;2023-02-28T00:50:48;2.83;;;1.27;;
4939;SDS011;2485;49.326;7.214;2023-02-28T00:53:15;1.20;;;1.10;;
4939;SDS011;2485;49.326;7.214;2023-02-28T00:55:43;1.23;;;1.13;;
4939;SDS011;2485;49.326;7.214;2023-02-28T00:58:09;1.20;;;1.10;;
4939;SDS011;2485;49.326;7.214;2023-02-28T01:00:35;1.00;;;0.80;;
4939;SDS011;2485;49.326;7.214;2023-02-28T01:03:02;1.10;;;1.00;;
4939;SDS011;2485;49.326;7.214;2023-02-28T01:05:31;2.00;;;1.47;;
4939;SDS011;2485;49.326;7.214;2023-02-28T01:08:00;1.90;;;1.70;;
4939;SDS011;2485;49.326;7.214;2023-02-28T01:10:27;1.43;;;1.20;;
4939;SDS011;2485;49.326;7.214;2023-02-28T01:12:58;1.50;;;1.13;;
4939;SDS011;2485;49.326;7.214;2023-02-28T01:15:32;2.20;;;1.00;;
4939;SDS011;2485;49.326;7.214;2023-02-28T01:18:01;1.20;;;1.10;;
4939;SDS011;2485;49.326;7.214;2023-02-28T01:20:31;1.30;;;1.20;;
4939;SDS011;2485;49.326;7.214;2023-02-28T01:22:57;1.97;;;1.57;;
4939;SDS011;2485;49.326;7.214;2023-02-28T01:25:24;1.40;;;1.30;;
4939;SDS011;2485;49.326;7.214;2023-02-28T01:27:50;1.47;;;1.30;;
4939;SDS011;2485;49.326;7.214;2023-02-28T01:30:18;1.57;;;1.17;;
4939;SDS011;2485;49.326;7.214;2023-02-28T01:32:45;1.50;;;1.10;;
4939;SDS011;2485;49.326;7.214;2023-02-28T01:35:11;1.30;;;1.10;;
4939;SDS011;2485;49.326;7.214;2023-02-28T01:37:37;1.97;;;1.67;;
4939;SDS011;2485;49.326;7.214;2023-02-28T01:40:07;3.00;;;1.53;;
4939;SDS011;2485;49.326;7.214;2023-02-28T01:42:33;1.10;;;1.00;;
4939;SDS011;2485;49.326;7.214;2023-02-28T01:45:02;1.93;;;1.27;;
4939;SDS011;2485;49.326;7.214;2023-02-28T01:47:31;4.30;;;1.83;;
4939;SDS011;2485;49.326;7.214;2023-02-28T01:50:00;4.67;;;1.43;;
4939;SDS011;2485;49.326;7.214;2023-02-28T01:52:28;2.67;;;1.17;;
4939;SDS011;2485;49.326;7.214;2023-02-28T01:54:55;1.40;;;1.00;;
4939;SDS011;2485;49.326;7.214;2023-02-28T01:57:24;1.57;;;1.10;;
4939;SDS011;2485;49.326;7.214;2023-02-28T01:59:52;3.43;;;1.93;;
4939;SDS011;2485;49.326;7.214;2023-02-28T02:02:20;4.60;;;2.13;;
4939;SDS011;2485;49.326;7.214;2023-02-28T02:04:50;1.77;;;1.60;;
4939;SDS011;2485;49.326;7.214;2023-02-28T02:07:20;1.67;;;1.57;;
4939;SDS011;2485;49.326;7.214;2023-02-28T02:09:46;3.93;;;1.57;;
4939;SDS011;2485;49.326;7.214;2023-02-28T02:12:15;1.63;;;1.50;;
4939;SDS011;2485;49.326;7.214;2023-02-28T02:14:49;5.90;;;1.60;;
4939;SDS011;2485;49.326;7.214;2023-02-28T02:17:22;5.37;;;1.30;;
4939;SDS011;2485;49.326;7.214;2023-02-28T02:20:05;2.63;;;1.67;;
4939;SDS011;2485;49.326;7.214;2023-02-28T02:22:45;1.80;;;1.43;;
4939;SDS011;2485;49.326;7.214;2023-02-28T02:25:19;2.07;;;1.57;;
4939;SDS011;2485;49.326;7.214;2023-02-28T02:27:55;1.83;;;1.60;;
4939;SDS011;2485;49.326;7.214;2023-02-28T02:30:32;2.47;;;1.90;;
4939;SDS011;2485;49.326;7.214;2023-02-28T02:33:22;3.30;;;1.47;;
4939;SDS011;2485;49.326;7.214;2023-02-28T02:35:55;1.63;;;1.37;;
4939;SDS011;2485;49.326;7.214;2023-02-28T02:38:27;1.83;;;1.60;;
4939;SDS011;2485;49.326;7.214;2023-02-28T02:40:57;1.50;;;1.27;;
4939;SDS011;2485;49.326;7.214;2023-02-28T02:43:25;2.97;;;1.77;;
4939;SDS011;2485;49.326;7.214;2023-02-28T02:45:55;1.30;;;1.20;;
4939;SDS011;2485;49.326;7.214;2023-02-28T02:48:24;3.33;;;1.80;;
4939;SDS011;2485;49.326;7.214;2023-02-28T02:50:52;3.50;;;1.70;;
4939;SDS011;2485;49.326;7.214;2023-02-28T02:53:25;2.90;;;1.67;;
4939;SDS011;2485;49.326;7.214;2023-02-28T02:55:53;3.33;;;2.03;;
4939;SDS011;2485;49.326;7.214;2023-02-28T02:58:22;1.57;;;1.47;;
4939;SDS011;2485;49.326;7.214;2023-02-28T03:00:50;2.60;;;1.83;;
4939;SDS011;2485;49.326;7.214;2023-02-28T03:03:18;1.60;;;1.50;;
4939;SDS011;2485;49.326;7.214;2023-02-28T03:05:54;1.47;;;1.37;;
4939;SDS011;2485;49.326;7.214;2023-02-28T03:08:22;3.63;;;2.33;;
4939;SDS011;2485;49.326;7.214;2023-02-28T03:10:49;2.90;;;2.20;;
4939;SDS011;2485;49.326;7.214;2023-02-28T03:13:31;4.10;;;2.23;;
4939;SDS011;2485;49.326;7.214;2023-02-28T03:16:04;2.13;;;1.90;;
4939;SDS011;2485;49.326;7.214;2023-02-28T03:18:39;1.30;;;1.20;;
4939;SDS011;2485;49.326;7.214;2023-02-28T03:21:10;1.40;;;1.30;;
4939;SDS011;2485;49.326;7.214;2023-02-28T03:23:44;1.93;;;1.57;;
4939;SDS011;2485;49.326;7.214;2023-02-28T03:26:17;2.47;;;1.80;;
4939;SDS011;2485;49.326;7.214;2023-02-28T03:28:55;2.70;;;2.30;;
4939;SDS011;2485;49.326;7.214;2023-02-28T03:31:27;4.00;;;2.60;;
4939;SDS011;2485;49.326;7.214;2023-02-28T03:33:55;4.80;;;2.17;;
4939;SDS011;2485;49.326;7.214;2023-02-28T03:36:26;4.63;;;2.27;;
4939;SDS011;2485;49.326;7.214;2023-02-28T03:38:56;2.63;;;1.80;;
4939;SDS011;2485;49.326;7.214;2023-02-28T03:41:27;3.53;;;2.80;;
4939;SDS011;2485;49.326;7.214;2023-02-28T03:43:56;3.83;;;2.60;;
4939;SDS011;2485;49.326;7.214;2023-02-28T03:46:25;3.33;;;2.27;;
4939;SDS011;2485;49.326;7.214;2023-02-28T03:48:55;3.53;;;2.70;;
4939;SDS011;2485;49.326;7.214;2023-02-28T03:51:22;4.20;;;2.50;;
4939;SDS011;2485;49.326;7.214;2023-02-28T03:53:50;4.77;;;2.57;;
4939;SDS011;2485;49.326;7.214;2023-02-28T03:56:20;3.33;;;3.03;;
4939;SDS011;2485;49.326;7.214;2023-02-28T03:58:49;2.23;;;1.97;;
4939;SDS011;2485;49.326;7.214;2023-02-28T04:01:20;4.47;;;2.70;;
4939;SDS011;2485;49.326;7.214;2023-02-28T04:03:47;4.63;;;2.90;;
4939;SDS011;2485;49.326;7.214;2023-02-28T04:06:15;3.90;;;2.33;;
4939;SDS011;2485;49.326;7.214;2023-02-28T04:08:42;2.40;;;2.07;;
4939;SDS011;2485;49.326;7.214;2023-02-28T04:11:12;4.03;;;2.63;;
4939;SDS011;2485;49.326;7.214;2023-02-28T04:13:43;4.20;;;2.97;;
4939;SDS011;2485;49.326;7.214;2023-02-28T04:16:09;3.87;;;2.63;;
4939;SDS011;2485;49.326;7.214;2023-02-28T04:18:37;1.43;;;1.10;;
4939;SDS011;2485;49.326;7.214;2023-02-28T04:21:03;5.33;;;3.30;;
4939;SDS011;2485;49.326;7.214;2023-02-28T04:23:30;3.27;;;2.37;;
4939;SDS011;2485;49.326;7.214;2023-02-28T04:25:57;3.27;;;2.50;;
4939;SDS011;2485;49.326;7.214;2023-02-28T04:28:23;9.90;;;2.60;;
4939;SDS011;2485;49.326;7.214;2023-02-28T04:30:55;5.77;;;3.30;;
4939;SDS011;2485;49.326;7.214;2023-02-28T04:33:21;2.90;;;2.40;;
4939;SDS011;2485;49.326;7.214;2023-02-28T04:35:47;4.00;;;2.83;;
4939;SDS011;2485;49.326;7.214;2023-02-28T04:38:14;5.20;;;2.83;;
4939;SDS011;2485;49.326;7.214;2023-02-28T04:40:40;2.87;;;2.27;;
4939;SDS011;2485;49.326;7.214;2023-02-28T04:43:06;2.73;;;2.27;;
4939;SDS011;2485;49.326;7.214;2023-02-28T04:45:33;5.47;;;2.90;;
4939;SDS011;2485;49.326;7.214;2023-02-28T04:48:00;3.80;;;2.00;;
4939;SDS011;2485;49.326;7.214;2023-02-28T04:50:27;6.20;;;2.80;;
4939;SDS011;2485;49.326;7.214;2023-02-28T04:52:53;3.97;;;2.20;;
4939;SDS011;2485;49.326;7.214;2023-02-28T04:55:22;5.20;;;2.60;;
4939;SDS011;2485;49.326;7.214;2023-02-28T04:57:49;4.77;;;2.80;;
4939;SDS011;2485;49.326;7.214;2023-02-28T05:00:16;4.30;;;2.50;;
4939;SDS011;2485;49.326;7.214;2023-02-28T05:02:42;2.83;;;1.90;;
4939;SDS011;2485;49.326;7.214;2023-02-28T05:05:10;3.07;;;2.20;;
4939;SDS011;2485;49.326;7.214;2023-02-28T05:07:37;3.10;;;2.33;;
4939;SDS011;2485;49.326;7.214;2023-02-28T05:10:03;3.60;;;2.40;;
4939;SDS011;2485;49.326;7.214;2023-02-28T05:12:30;4.90;;;2.90;;
4939;SDS011;2485;49.326;7.214;2023-02-28T05:14:56;4.60;;;2.77;;
4939;SDS011;2485;49.326;7.214;2023-02-28T05:17:22;7.57;;;3.27;;
4939;SDS011;2485;49.326;7.214;2023-02-28T05:19:49;4.97;;;3.47;;
4939;SDS011;2485;49.326;7.214;2023-02-28T05:22:17;5.47;;;3.50;;
4939;SDS011;2485;49.326;7.214;2023-02-28T05:24:43;5.20;;;2.13;;
4939;SDS011;2485;49.326;7.214;2023-02-28T05:27:10;5.10;;;2.57;;
4939;SDS011;2485;49.326;7.214;2023-02-28T05:29:36;2.90;;;2.07;;
4939;SDS011;2485;49.326;7.214;2023-02-28T05:32:06;5.77;;;3.37;;
4939;SDS011;2485;49.326;7.214;2023-02-28T05:34:33;3.27;;;2.00;;
4939;SDS011;2485;49.326;7.214;2023-02-28T05:36:59;4.60;;;2.93;;
4939;SDS011;2485;49.326;7.214;2023-02-28T05:39:27;5.20;;;2.33;;
4939;SDS011;2485;49.326;7.214;2023-02-28T05:41:53;5.03;;;3.43;;
4939;SDS011;2485;49.326;7.214;2023-02-28T05:44:19;3.50;;;2.87;;
4939;SDS011;2485;49.326;7.214;2023-02-28T05:46:46;6.47;;;3.30;;
4939;SDS011;2485;49.326;7.214;2023-02-28T05:49:12;1.83;;;1.60;;
4939;SDS011;2485;49.326;7.214;2023-02-28T05:51:38;2.37;;;1.87;;
4939;SDS011;2485;49.326;7.214;2023-02-28T05:54:05;2.53;;;2.33;;
4939;SDS011;2485;49.326;7.214;2023-02-28T05:56:33;4.20;;;1.97;;
4939;SDS011;2485;49.326;7.214;2023-02-28T05:59:00;7.73;;;3.57;;
4939;SDS011;2485;49.326;7.214;2023-02-28T06:01:34;5.10;;;3.00;;
4939;SDS011;2485;49.326;7.214;2023-02-28T06:04:03;3.27;;;2.23;;
4939;SDS011;2485;49.326;7.214;2023-02-28T06:06:30;4.67;;;3.60;;
4939;SDS011;2485;49.326;7.214;2023-02-28T06:08:59;3.50;;;3.00;;
4939;SDS011;2485;49.326;7.214;2023-02-28T06:11:25;5.87;;;2.63;;
4939;SDS011;2485;49.326;7.214;2023-02-28T06:13:54;3.60;;;3.23;;
4939;SDS011;2485;49.326;7.214;2023-02-28T06:16:24;3.10;;;2.80;;
4939;SDS011;2485;49.326;7.214;2023-02-28T06:18:52;6.10;;;2.93;;
4939;SDS011;2485;49.326;7.214;2023-02-28T06:21:21;2.30;;;1.97;;
4939;SDS011;2485;49.326;7.214;2023-02-28T06:23:47;3.70;;;2.80;;
4939;SDS011;2485;49.326;7.214;2023-02-28T06:26:14;5.97;;;3.80;;
4939;SDS011;2485;49.326;7.214;2023-02-28T06:28:40;3.60;;;2.20;;
4939;SDS011;2485;49.326;7.214;2023-02-28T06:31:08;3.87;;;3.10;;
4939;SDS011;2485;49.326;7.214;2023-02-28T06:33:35;4.50;;;2.83;;
4939;SDS011;2485;49.326;7.214;2023-02-28T06:36:02;4.27;;;2.33;;
4939;SDS011;2485;49.326;7.214;2023-02-28T06:38:28;4.10;;;3.30;;
4939;SDS011;2485;49.326;7.214;2023-02-28T06:40:55;4.87;;;3.03;;
4939;SDS011;2485;49.326;7.214;2023-02-28T06:43:24;7.40;;;4.67;;
4939;SDS011;2485;49.326;7.214;2023-02-28T06:45:54;3.33;;;3.00;;
4939;SDS011;2485;49.326;7.214;2023-02-28T06:48:22;10.57;;;3.07;;
4939;SDS011;2485;49.326;7.214;2023-02-28T06:50:48;4.93;;;3.27;;
4939;SDS011;2485;49.326;7.214;2023-02-28T06:53:14;4.80;;;3.37;;
4939;SDS011;2485;49.326;7.214;2023-02-28T06:55:41;3.13;;;2.27;;
4939;SDS011;2485;49.326;7.214;2023-02-28T06:58:07;6.47;;;4.00;;
4939;SDS011;2485;49.326;7.214;2023-02-28T07:00:39;6.10;;;3.80;;
4939;SDS011;2485;49.326;7.214;2023-02-28T07:03:06;4.67;;;2.60;;
4939;SDS011;2485;49.326;7.214;2023-02-28T07:05:35;7.10;;;4.47;;
4939;SDS011;2485;49.326;7.214;2023-02-28T07:08:01;2.83;;;1.97;;
4939;SDS011;2485;49.326;7.214;2023-02-28T07:10:28;3.40;;;2.20;;
4939;SDS011;2485;49.326;7.214;2023-02-28T07:12:54;6.53;;;4.30;;
4939;SDS011;2485;49.326;7.214;2023-02-28T07:15:20;4.00;;;2.00;;
4939;SDS011;2485;49.326;7.214;2023-02-28T07:17:47;4.40;;;3.10;;
4939;SDS011;2485;49.326;7.214;2023-02-28T07:20:13;4.37;;;2.77;;
4939;SDS011;2485;49.326;7.214;2023-02-28T07:22:41;2.20;;;2.00;;
4939;SDS011;2485;49.326;7.214;2023-02-28T07:25:08;6.70;;;3.73;;
4939;SDS011;2485;49.326;7.214;2023-02-28T07:27:34;3.90;;;3.47;;
4939;SDS011;2485;49.326;7.214;2023-02-28T07:30:01;3.30;;;2.23;;
4939;SDS011;2485;49.326;7.214;2023-02-28T07:32:32;3.93;;;2.43;;
4939;SDS011;2485;49.326;7.214;2023-02-28T07:34:59;9.17;;;4.53;;
4939;SDS011;2485;49.326;7.214;2023-02-28T07:37:26;4.53;;;3.30;;
4939;SDS011;2485;49.326;7.214;2023-02-28T07:39:53;4.30;;;2.37;;
4939;SDS011;2485;49.326;7.214;2023-02-28T07:42:21;7.17;;;3.60;;
4939;SDS011;2485;49.326;7.214;2023-02-28T07:44:48;3.93;;;3.33;;
4939;SDS011;2485;49.326;7.214;2023-02-28T07:47:16;5.00;;;3.50;;
4939;SDS011;2485;49.326;7.214;2023-02-28T07:49:44;3.77;;;1.80;;
4939;SDS011;2485;49.326;7.214;2023-02-28T07:52:11;3.30;;;2.60;;
4939;SDS011;2485;49.326;7.214;2023-02-28T07:54:37;4.80;;;2.77;;
4939;SDS011;2485;49.326;7.214;2023-02-28T07:57:05;4.70;;;3.00;;
4939;SDS011;2485;49.326;7.214;2023-02-28T07:59:31;3.73;;;3.00;;
4939;SDS011;2485;49.326;7.214;2023-02-28T08:01:58;3.80;;;2.30;;
4939;SDS011;2485;49.326;7.214;2023-02-28T08:04:24;5.17;;;3.30;;
4939;SDS011;2485;49.326;7.214;2023-02-28T08:06:50;4.80;;;3.13;;
4939;SDS011;2485;49.326;7.214;2023-02-28T08:09:18;6.97;;;3.77;;
4939;SDS011;2485;49.326;7.214;2023-02-28T08:11:44;5.07;;;2.53;;
4939;SDS011;2485;49.326;7.214;2023-02-28T08:14:12;3.90;;;2.80;;
4939;SDS011;2485;49.326;7.214;2023-02-28T08:16:38;7.80;;;4.20;;
4939;SDS011;2485;49.326;7.214;2023-02-28T08:19:05;3.40;;;2.43;;
4939;SDS011;2485;49.326;7.214;2023-02-28T08:21:31;8.67;;;4.10;;
4939;SDS011;2485;49.326;7.214;2023-02-28T08:23:57;5.63;;;3.33;;
4939;SDS011;2485;49.326;7.214;2023-02-28T08:26:24;4.20;;;2.67;;
4939;SDS011;2485;49.326;7.214;2023-02-28T08:28:50;4.93;;;3.20;;
4939;SDS011;2485;49.326;7.214;2023-02-28T08:31:18;6.53;;;3.67;;
4939;SDS011;2485;49.326;7.214;2023-02-28T08:33:47;4.07;;;3.50;;
4939;SDS011;2485;49.326;7.214;2023-02-28T08:36:16;3.33;;;2.43;;
4939;SDS011;2485;49.326;7.214;2023-02-28T08:38:42;6.90;;;3.47;;
4939;SDS011;2485;49.326;7.214;2023-02-28T08:41:10;3.70;;;2.53;;
4939;SDS011;2485;49.326;7.214;2023-02-28T08:43:36;3.17;;;2.00;;
4939;SDS011;2485;49.326;7.214;2023-02-28T08:46:03;4.90;;;2.50;;
4939;SDS011;2485;49.326;7.214;2023-02-28T08:48:32;3.20;;;2.90;;
4939;SDS011;2485;49.326;7.214;2023-02-28T08:51:00;4.33;;;2.47;;
4939;SDS011;2485;49.326;7.214;2023-02-28T08:53:30;3.80;;;2.43;;
4939;SDS011;2485;49.326;7.214;2023-02-28T08:55:57;8.00;;;3.13;;
4939;SDS011;2485;49.326;7.214;2023-02-28T08:58:23;6.30;;;3.57;;
4939;SDS011;2485;49.326;7.214;2023-02-28T09:00:50;3.30;;;2.97;;
4939;SDS011;2485;49.326;7.214;2023-02-28T09:03:16;4.20;;;2.70;;
4939;SDS011;2485;49.326;7.214;2023-02-28T09:05:52;4.13;;;2.30;;
4939;SDS011;2485;49.326;7.214;2023-02-28T09:08:18;2.27;;;1.83;;
4939;SDS011;2485;49.326;7.214;2023-02-28T09:10:45;5.80;;;3.07;;
4939;SDS011;2485;49.326;7.214;2023-02-28T09:13:12;3.07;;;2.57;;
4939;SDS011;2485;49.326;7.214;2023-02-28T09:15:38;7.50;;;3.77;;
4939;SDS011;2485;49.326;7.214;2023-02-28T09:18:07;4.20;;;2.73;;
4939;SDS011;2485;49.326;7.214;2023-02-28T09:20:37;5.97;;;3.33;;
4939;SDS011;2485;49.326;7.214;2023-02-28T09:23:05;4.30;;;2.93;;
4939;SDS011;2485;49.326;7.214;2023-02-28T09:25:31;5.50;;;3.50;;
4939;SDS011;2485;49.326;7.214;2023-02-28T09:27:57;4.60;;;3.17;;
4939;SDS011;2485;49.326;7.214;2023-02-28T09:30:26;5.33;;;3.73;;
4939;SDS011;2485;49.326;7.214;2023-02-28T09:32:53;2.43;;;2.23;;
4939;SDS011;2485;49.326;7.214;2023-02-28T09:35:20;5.03;;;3.00;;
4939;SDS011;2485;49.326;7.214;2023-02-28T09:37:50;3.10;;;2.80;;
4939;SDS011;2485;49.326;7.214;2023-02-28T09:40:19;7.13;;;3.47;;
4939;SDS011;2485;49.326;7.214;2023-02-28T09:42:47;4.07;;;2.30;;
4939;SDS011;2485;49.326;7.214;2023-02-28T09:45:22;5.37;;;3.00;;
4939;SDS011;2485;49.326;7.214;2023-02-28T09:47:51;6.30;;;2.50;;
4939;SDS011;2485;49.326;7.214;2023-02-28T09:50:21;4.80;;;2.90;;
4939;SDS011;2485;49.326;7.214;2023-02-28T09:52:49;5.93;;;2.97;;
4939;SDS011;2485;49.326;7.214;2023-02-28T09:55:22;5.03;;;2.40;;
4939;SDS011;2485;49.326;7.214;2023-02-28T09:57:50;4.63;;;2.90;;
4939;SDS011;2485;49.326;7.214;2023-02-28T10:00:18;3.33;;;2.67;;
4939;SDS011;2485;49.326;7.214;2023-02-28T10:05:36;4.17;;;2.53;;
4939;SDS011;2485;49.326;7.214;2023-02-28T10:08:05;6.03;;;2.40;;
4939;SDS011;2485;49.326;7.214;2023-02-28T10:10:36;5.23;;;2.70;;
4939;SDS011;2485;49.326;7.214;2023-02-28T10:13:04;5.27;;;3.23;;
4939;SDS011;2485;49.326;7.214;2023-02-28T10:15:31;4.67;;;2.40;;
4939;SDS011;2485;49.326;7.214;2023-02-28T10:17:58;3.40;;;2.43;;
4939;SDS011;2485;49.326;7.214;2023-02-28T10:20:26;4.13;;;2.50;;
4939;SDS011;2485;49.326;7.214;2023-02-28T10:22:57;3.27;;;2.23;;
4939;SDS011;2485;49.326;7.214;2023-02-28T10:25:26;4.03;;;3.00;;
4939;SDS011;2485;49.326;7.214;2023-02-28T10:27:54;3.13;;;2.20;;
4939;SDS011;2485;49.326;7.214;2023-02-28T10:30:25;3.07;;;2.07;;
4939;SDS011;2485;49.326;7.214;2023-02-28T10:32:51;2.80;;;2.30;;
4939;SDS011;2485;49.326;7.214;2023-02-28T10:35:19;6.97;;;3.60;;
4939;SDS011;2485;49.326;7.214;2023-02-28T10:37:47;4.00;;;2.60;;
4939;SDS011;2485;49.326;7.214;2023-02-28T10:40:25;4.57;;;2.70;;
4939;SDS011;2485;49.326;7.214;2023-02-28T10:42:56;5.10;;;3.00;;
4939;SDS011;2485;49.326;7.214;2023-02-28T10:45:23;5.13;;;3.77;;
4939;SDS011;2485;49.326;7.214;2023-02-28T10:47:51;4.63;;;3.90;;
4939;SDS011;2485;49.326;7.214;2023-02-28T10:50:29;4.60;;;3.37;;
4939;SDS011;2485;49.326;7.214;2023-02-28T10:53:13;3.10;;;2.50;;
4939;SDS011;2485;49.326;7.214;2023-02-28T10:55:40;4.97;;;3.50;;
4939;SDS011;2485;49.326;7.214;2023-02-28T10:58:19;5.30;;;3.33;;
4939;SDS011;2485;49.326;7.214;2023-02-28T11:00:50;7.03;;;3.57;;
4939;SDS011;2485;49.326;7.214;2023-02-28T11:03:23;9.27;;;3.10;;
4939;SDS011;2485;49.326;7.214;2023-02-28T11:05:50;11.53;;;3.60;;
4939;SDS011;2485;49.326;7.214;2023-02-28T11:08:17;4.00;;;2.73;;
4939;SDS011;2485;49.326;7.214;2023-02-28T11:10:44;6.50;;;3.87;;
4939;SDS011;2485;49.326;7.214;2023-02-28T11:13:15;7.70;;;2.30;;
4939;SDS011;2485;49.326;7.214;2023-02-28T11:15:45;6.20;;;3.53;;
4939;SDS011;2485;49.326;7.214;2023-02-28T11:18:21;7.53;;;3.80;;
4939;SDS011;2485;49.326;7.214;2023-02-28T11:20:48;3.70;;;2.80;;
4939;SDS011;2485;49.326;7.214;2023-02-28T11:23:16;5.00;;;3.43;;
4939;SDS011;2485;49.326;7.214;2023-02-28T11:25:46;6.13;;;4.50;;
4939;SDS011;2485;49.326;7.214;2023-02-28T11:28:23;4.87;;;3.07;;
4939;SDS011;2485;49.326;7.214;2023-02-28T11:30:59;6.30;;;3.30;;
4939;SDS011;2485;49.326;7.214;2023-02-28T11:33:27;5.57;;;3.43;;
4939;SDS011;2485;49.326;7.214;2023-02-28T11:36:08;8.63;;;4.70;;
4939;SDS011;2485;49.326;7.214;2023-02-28T11:38:35;5.73;;;4.17;;
4939;SDS011;2485;49.326;7.214;2023-02-28T11:41:05;3.87;;;3.20;;
4939;SDS011;2485;49.326;7.214;2023-02-28T11:43:38;6.17;;;3.57;;
4939;SDS011;2485;49.326;7.214;2023-02-28T11:46:13;5.27;;;3.90;;
4939;SDS011;2485;49.326;7.214;2023-02-28T11:48:45;6.40;;;4.00;;
4939;SDS011;2485;49.326;7.214;2023-02-28T11:51:17;4.67;;;3.03;;
4939;SDS011;2485;49.326;7.214;2023-02-28T11:53:59;4.47;;;3.03;;
4939;SDS011;2485;49.326;7.214;2023-02-28T11:56:28;4.60;;;3.20;;
4939;SDS011;2485;49.326;7.214;2023-02-28T11:59:00;5.63;;;4.10;;
4939;SDS011;2485;49.326;7.214;2023-02-28T12:01:35;5.10;;;2.83;;
4939;SDS011;2485;49.326;7.214;2023-02-28T12:04:10;5.37;;;3.83;;
4939;SDS011;2485;49.326;7.214;2023-02-28T12:06:38;6.77;;;4.27;;
4939;SDS011;2485;49.326;7.214;2023-02-28T12:09:13;5.70;;;3.20;;
4939;SDS011;2485;49.326;7.214;2023-02-28T12:11:48;7.43;;;4.10;;
4939;SDS011;2485;49.326;7.214;2023-02-28T12:17:06;17.13;;;4.20;;
4939;SDS011;2485;49.326;7.214;2023-02-28T12:19:40;11.20;;;3.30;;
4939;SDS011;2485;49.326;7.214;2023-02-28T12:22:12;10.13;;;4.47;;
4939;SDS011;2485;49.326;7.214;2023-02-28T12:24:50;6.53;;;4.30;;
4939;SDS011;2485;49.326;7.214;2023-02-28T12:27:22;8.03;;;4.33;;
4939;SDS011;2485;49.326;7.214;2023-02-28T12:29:52;7.57;;;3.87;;
4939;SDS011;2485;49.326;7.214;2023-02-28T12:32:23;8.07;;;4.17;;
4939;SDS011;2485;49.326;7.214;2023-02-28T12:34:55;7.90;;;4.57;;
4939;SDS011;2485;49.326;7.214;2023-02-28T12:37:24;7.53;;;5.00;;
4939;SDS011;2485;49.326;7.214;2023-02-28T12:39:56;5.63;;;4.23;;
4939;SDS011;2485;49.326;7.214;2023-02-28T12:42:26;6.43;;;4.67;;
4939;SDS011;2485;49.326;7.214;2023-02-28T12:44:54;8.40;;;4.30;;
4939;SDS011;2485;49.326;7.214;2023-02-28T12:47:22;6.83;;;3.97;;
4939;SDS011;2485;49.326;7.214;2023-02-28T12:49:49;7.33;;;4.53;;
4939;SDS011;2485;49.326;7.214;2023-02-28T12:52:18;5.90;;;3.50;;
4939;SDS011;2485;49.326;7.214;2023-02-28T12:54:47;5.83;;;3.70;;
4939;SDS011;2485;49.326;7.214;2023-02-28T12:57:16;7.27;;;4.57;;
4939;SDS011;2485;49.326;7.214;2023-02-28T12:59:48;8.10;;;4.37;;
4939;SDS011;2485;49.326;7.214;2023-02-28T13:08:01;5.60;;;3.53;;
4939;SDS011;2485;49.326;7.214;2023-02-28T13:10:40;7.70;;;4.30;;
4939;SDS011;2485;49.326;7.214;2023-02-28T13:13:17;6.00;;;3.30;;
4939;SDS011;2485;49.326;7.214;2023-02-28T13:16:04;5.50;;;3.90;;
4939;SDS011;2485;49.326;7.214;2023-02-28T13:18:32;5.43;;;4.00;;
4939;SDS011;2485;49.326;7.214;2023-02-28T13:20:58;6.67;;;4.47;;
4939;SDS011;2485;49.326;7.214;2023-02-28T13:23:41;9.00;;;4.93;;
4939;SDS011;2485;49.326;7.214;2023-02-28T13:26:23;5.90;;;3.73;;
4939;SDS011;2485;49.326;7.214;2023-02-28T13:34:32;10.67;;;3.77;;
4939;SDS011;2485;49.326;7.214;2023-02-28T13:39:48;8.13;;;4.47;;
4939;SDS011;2485;49.326;7.214;2023-02-28T13:42:33;6.87;;;4.70;;
4939;SDS011;2485;49.326;7.214;2023-02-28T13:45:21;6.60;;;4.17;;
4939;SDS011;2485;49.326;7.214;2023-02-28T13:47:51;7.20;;;3.90;;
4939;SDS011;2485;49.326;7.214;2023-02-28T13:50:22;6.53;;;3.97;;
4939;SDS011;2485;49.326;7.214;2023-02-28T13:52:52;7.13;;;4.13;;
4939;SDS011;2485;49.326;7.214;2023-02-28T13:55:26;7.73;;;5.00;;
4939;SDS011;2485;49.326;7.214;2023-02-28T13:57:58;7.17;;;3.43;;
4939;SDS011;2485;49.326;7.214;2023-02-28T14:00:34;6.70;;;3.90;;
4939;SDS011;2485;49.326;7.214;2023-02-28T14:03:07;5.13;;;3.37;;
4939;SDS011;2485;49.326;7.214;2023-02-28T14:05:40;4.20;;;3.10;;
4939;SDS011;2485;49.326;7.214;2023-02-28T14:08:08;6.03;;;3.77;;
4939;SDS011;2485;49.326;7.214;2023-02-28T14:10:42;5.70;;;3.60;;
4939;SDS011;2485;49.326;7.214;2023-02-28T14:13:14;6.73;;;5.20;;
4939;SDS011;2485;49.326;7.214;2023-02-28T14:15:43;13.20;;;4.20;;
4939;SDS011;2485;49.326;7.214;2023-02-28T14:18:14;9.67;;;4.77;;
4939;SDS011;2485;49.326;7.214;2023-02-28T14:20:42;6.57;;;3.73;;
4939;SDS011;2485;49.326;7.214;2023-02-28T14:23:10;5.40;;;3.50;;
4939;SDS011;2485;49.326;7.214;2023-02-28T14:25:40;4.33;;;3.53;;
4939;SDS011;2485;49.326;7.214;2023-02-28T14:28:13;5.47;;;3.77;;
4939;SDS011;2485;49.326;7.214;2023-02-28T14:30:56;4.37;;;3.43;;
4939;SDS011;2485;49.326;7.214;2023-02-28T14:33:25;5.33;;;3.33;;
4939;SDS011;2485;49.326;7.214;2023-02-28T14:38:40;6.63;;;4.70;;
4939;SDS011;2485;49.326;7.214;2023-02-28T14:41:12;5.20;;;3.90;;
4939;SDS011;2485;49.326;7.214;2023-02-28T14:43:48;6.27;;;3.77;;
4939;SDS011;2485;49.326;7.214;2023-02-28T14:46:15;9.83;;;4.77;;
4939;SDS011;2485;49.326;7.214;2023-02-28T14:48:44;4.37;;;3.97;;
4939;SDS011;2485;49.326;7.214;2023-02-28T14:51:11;8.10;;;5.10;;
4939;SDS011;2485;49.326;7.214;2023-02-28T14:53:38;5.03;;;3.23;;
4939;SDS011;2485;49.326;7.214;2023-02-28T14:56:05;8.00;;;4.80;;
4939;SDS011;2485;49.326;7.214;2023-02-28T14:58:32;4.60;;;3.20;;
4939;SDS011;2485;49.326;7.214;2023-02-28T15:01:03;8.67;;;4.17;;
4939;SDS011;2485;49.326;7.214;2023-02-28T15:03:31;5.80;;;4.13;;
4939;SDS011;2485;49.326;7.214;2023-02-28T15:05:58;7.37;;;4.50;;
4939;SDS011;2485;49.326;7.214;2023-02-28T15:08:25;4.20;;;2.87;;
4939;SDS011;2485;49.326;7.214;2023-02-28T15:10:54;11.97;;;4.70;;
4939;SDS011;2485;49.326;7.214;2023-02-28T15:13:26;8.57;;;4.37;;
4939;SDS011;2485;49.326;7.214;2023-02-28T15:15:56;8.10;;;4.33;;
4939;SDS011;2485;49.326;7.214;2023-02-28T15:18:27;7.10;;;4.60;;
4939;SDS011;2485;49.326;7.214;2023-02-28T15:20:58;8.10;;;5.80;;
4939;SDS011;2485;49.326;7.214;2023-02-28T15:23:25;8.60;;;5.40;;
4939;SDS011;2485;49.326;7.214;2023-02-28T15:25:51;8.77;;;4.57;;
4939;SDS011;2485;49.326;7.214;2023-02-28T15:28:19;4.67;;;3.67;;
4939;SDS011;2485;49.326;7.214;2023-02-28T15:30:56;8.50;;;5.30;;
4939;SDS011;2485;49.326;7.214;2023-02-28T15:33:23;10.40;;;4.47;;
4939;SDS011;2485;49.326;7.214;2023-02-28T15:36:02;5.20;;;3.20;;
4939;SDS011;2485;49.326;7.214;2023-02-28T15:38:33;5.30;;;3.93;;
4939;SDS011;2485;49.326;7.214;2023-02-28T15:41:00;9.70;;;6.20;;
4939;SDS011;2485;49.326;7.214;2023-02-28T15:43:27;7.27;;;4.20;;
4939;SDS011;2485;49.326;7.214;2023-02-28T15:45:55;10.03;;;6.20;;
4939;SDS011;2485;49.326;7.214;2023-02-28T15:48:23;7.50;;;3.83;;
4939;SDS011;2485;49.326;7.214;2023-02-28T15:50:52;8.50;;;5.20;;